Time,TemperatureF,DewpointF,PressureIn,WindDirection,WindDirectionDegrees,WindSpeedMPH,WindSpeedGustMPH,Humidity,HourlyPrecipIn,Conditions,Clouds,dailyrainin,SoftwareType,DateUTC
2013-02-16 01:02:00,34.0,-99.9,-100.00,East,91,3.0,4.0,-999,-99.99,,,-99.99,,2013-02-16 08:02:00,
2013-02-16 01:11:00,34.0,-99.9,-100.00,East,91,3.0,4.0,-999,-99.99,,,-99.99,,2013-02-16 08:11:00,
2013-02-16 01:22:00,34.0,-99.9,-100.00,East,91,3.0,4.0,-999,-99.99,,,-99.99,,2013-02-16 08:22:00,
2013-02-16 01:32:00,35.0,-99.9,-100.00,East,89,3.0,4.0,-999,-99.99,,,-99.99,,2013-02-16 08:32:00,
2013-02-16 01:42:00,35.0,-99.9,-100.00,East,89,3.0,4.0,-999,-99.99,,,-99.99,,2013-02-16 08:42:00,
2013-02-16 03:40:00,32.0,-99.9,-100.00,NE,49,1.0,4.0,-999,-99.99,,,-99.99,,2013-02-16 10:40:00,
2013-02-16 04:02:00,29.0,-99.9,-100.00,ENE,59,0.0,0.0,-999,-99.99,,,-99.99,,2013-02-16 11:02:00,
2013-02-16 04:11:00,29.0,-99.9,-100.00,ENE,59,0.0,0.0,-999,-99.99,,,-99.99,,2013-02-16 11:11:00,
2013-02-16 04:22:00,32.0,-99.9,-100.00,NE,49,1.0,4.0,-999,-99.99,,,-99.99,,2013-02-16 11:22:00,
2013-02-16 04:32:00,32.0,-99.9,-100.00,NE,49,1.0,4.0,-999,-99.99,,,-99.99,,2013-02-16 11:32:00,
2013-02-16 04:52:00,29.0,-99.9,-100.00,ENE,72,0.0,1.0,-999,-99.99,,,-99.99,,2013-02-16 11:52:00,
2013-02-16 05:02:00,29.0,-99.9,-100.00,East,91,5.0,5.0,-999,-99.99,,,-99.99,,2013-02-16 12:02:00,
2013-02-16 05:12:00,29.0,-99.9,-100.00,East,91,5.0,5.0,-999,-99.99,,,-99.99,,2013-02-16 12:12:00,
2013-02-16 05:22:00,29.0,-99.9,-100.00,East,91,5.0,5.0,-999,-99.99,,,-99.99,,2013-02-16 12:22:00,
2013-02-16 06:50:00,22.0,-99.9,-100.00,East,89,5.0,5.0,-999,-99.99,,,-99.99,,2013-02-16 13:50:00,
2013-02-16 07:32:00,22.0,-99.9,-100.00,East,89,5.0,5.0,-999,-99.99,,,-99.99,,2013-02-16 14:32:00,
2013-02-16 07:40:00,26.0,-99.9,-100.00,NE,53,1.0,3.0,-999,-99.99,,,-99.99,,2013-02-16 14:40:00,
2013-02-16 07:42:00,22.0,-99.9,-100.00,East,89,5.0,5.0,-999,-99.99,,,-99.99,,2013-02-16 14:42:00,
2013-02-16 08:02:00,25.0,-99.9,-100.00,WSW,251,0.0,0.0,-999,-99.99,,,-99.99,,2013-02-16 15:02:00,
2013-02-16 08:11:00,25.0,-99.9,-100.00,WSW,251,0.0,0.0,-999,-99.99,,,-99.99,,2013-02-16 15:11:00,
2013-02-16 08:22:00,26.0,-99.9,-100.00,NE,53,1.0,3.0,-999,-99.99,,,-99.99,,2013-02-16 15:22:00,
2013-02-16 08:32:00,26.0,-99.9,-100.00,NE,53,1.0,3.0,-999,-99.99,,,-99.99,,2013-02-16 15:32:00,
2013-02-16 08:40:00,35.0,-99.9,-100.00,SE,130,2.0,2.0,-999,-99.99,,,-99.99,,2013-02-16 15:40:00,
2013-02-16 09:22:00,35.0,-99.9,-100.00,SE,130,2.0,2.0,-999,-99.99,,,-99.99,,2013-02-16 16:22:00,
2013-02-16 09:32:00,35.0,-99.9,-100.00,SE,130,2.0,2.0,-999,-99.99,,,-99.99,,2013-02-16 16:32:00,
2013-02-16 11:02:00,47.0,-99.9,-100.00,ENE,70,1.0,1.0,-999,-99.99,,,-99.99,,2013-02-16 18:02:00,
2013-02-16 11:11:00,47.0,-99.9,-100.00,ENE,70,1.0,1.0,-999,-99.99,,,-99.99,,2013-02-16 18:11:00,
2013-02-16 11:22:00,47.0,-99.9,-100.00,ENE,70,1.0,1.0,-999,-99.99,,,-99.99,,2013-02-16 18:22:00,
2013-02-16 12:20:00,54.0,-99.9,-100.00,East,93,5.0,6.0,-999,-99.99,,,-99.99,,2013-02-16 19:20:00,
2013-02-16 12:32:00,54.0,-99.9,-100.00,SSE,160,2.0,6.0,-999,-99.99,,,-99.99,,2013-02-16 19:32:00,
2013-02-16 12:42:00,54.0,-99.9,-100.00,SSE,160,2.0,6.0,-999,-99.99,,,-99.99,,2013-02-16 19:42:00,
2013-02-16 12:52:00,54.0,-99.9,-100.00,SSE,160,2.0,6.0,-999,-99.99,,,-99.99,,2013-02-16 19:52:00,
2013-02-16 13:02:00,54.0,-99.9,-100.00,East,93,5.0,6.0,-999,-99.99,,,-99.99,,2013-02-16 20:02:00,
2013-02-16 13:11:00,54.0,-99.9,-100.00,East,93,5.0,6.0,-999,-99.99,,,-99.99,,2013-02-16 20:11:00,
2013-02-16 13:52:00,57.0,-99.9,-100.00,SSE,150,3.0,3.0,-999,-99.99,,,-99.99,,2013-02-16 20:52:00,
2013-02-16 14:02:00,57.0,-99.9,-100.00,SSE,150,3.0,3.0,-999,-99.99,,,-99.99,,2013-02-16 21:02:00,
2013-02-16 14:40:00,58.0,-99.9,-100.00,ESE,103,2.0,4.0,-999,-99.99,,,-99.99,,2013-02-16 21:40:00,
2013-02-16 14:52:00,58.0,-99.9,-100.00,East,92,3.0,6.0,-999,-99.99,,,-99.99,,2013-02-16 21:52:00,
2013-02-16 15:02:00,58.0,-99.9,-100.00,East,92,3.0,6.0,-999,-99.99,,,-99.99,,2013-02-16 22:02:00,
2013-02-16 15:22:00,58.0,-99.9,-100.00,ESE,103,2.0,4.0,-999,-99.99,,,-99.99,,2013-02-16 22:22:00,
2013-02-16 15:32:00,58.0,-99.9,-100.00,ESE,103,2.0,4.0,-999,-99.99,,,-99.99,,2013-02-16 22:32:00,
2013-02-16 15:50:00,59.0,-99.9,-100.00,SSW,199,2.0,6.0,-999,-99.99,,,-99.99,,2013-02-16 22:50:00,
2013-02-16 15:52:00,58.0,-99.9,-100.00,East,85,2.0,4.0,-999,-99.99,,,-99.99,,2013-02-16 22:52:00,
2013-02-16 16:02:00,59.0,-99.9,-100.00,SE,137,1.0,3.0,-999,-99.99,,,-99.99,,2013-02-16 23:02:00,
2013-02-16 16:11:00,59.0,-99.9,-100.00,SE,137,1.0,3.0,-999,-99.99,,,-99.99,,2013-02-16 23:11:00,
2013-02-16 16:32:00,59.0,-99.9,-100.00,SSW,199,2.0,6.0,-999,-99.99,,,-99.99,,2013-02-16 23:32:00,
2013-02-16 16:42:00,59.0,-99.9,-100.00,SSW,199,2.0,6.0,-999,-99.99,,,-99.99,,2013-02-16 23:42:00,
2013-02-16 17:02:00,58.0,-99.9,-100.00,SW,236,3.0,4.0,-999,-99.99,,,-99.99,,2013-02-17 00:02:00,
2013-02-16 17:12:00,58.0,-99.9,-100.00,SW,236,3.0,4.0,-999,-99.99,,,-99.99,,2013-02-17 00:12:00,
2013-02-16 17:22:00,58.0,-99.9,-100.00,SW,236,3.0,4.0,-999,-99.99,,,-99.99,,2013-02-17 00:22:00,
2013-02-16 17:40:00,54.0,-99.9,-100.00,ESE,105,3.0,6.0,-999,-99.99,,,-99.99,,2013-02-17 00:40:00,
2013-02-16 18:22:00,54.0,-99.9,-100.00,ESE,105,3.0,6.0,-999,-99.99,,,-99.99,,2013-02-17 01:22:00,
2013-02-16 18:32:00,54.0,-99.9,-100.00,ESE,105,3.0,6.0,-999,-99.99,,,-99.99,,2013-02-17 01:32:00,
2013-02-16 19:21:00,52.0,-99.9,-100.00,SSE,164,2.0,5.0,-999,-99.99,,,-99.99,,2013-02-17 02:21:00,
2013-02-16 19:32:00,52.0,-99.9,-100.00,SSE,164,2.0,5.0,-999,-99.99,,,-99.99,,2013-02-17 02:32:00,
2013-02-16 20:32:00,43.0,-99.9,-100.00,East,86,2.0,5.0,-999,-99.99,,,-99.99,,2013-02-17 03:32:00,
2013-02-16 20:42:00,43.0,-99.9,-100.00,East,86,2.0,5.0,-999,-99.99,,,-99.99,,2013-02-17 03:42:00,
2013-02-16 20:52:00,43.0,-99.9,-100.00,East,86,2.0,5.0,-999,-99.99,,,-99.99,,2013-02-17 03:52:00,
2013-02-16 21:40:00,41.0,-99.9,-100.00,NNE,28,1.0,3.0,-999,-99.99,,,-99.99,,2013-02-17 04:40:00,
2013-02-16 22:02:00,41.0,-99.9,-100.00,East,83,3.0,4.0,-999,-99.99,,,-99.99,,2013-02-17 05:02:00,
2013-02-16 22:12:00,41.0,-99.9,-100.00,East,83,3.0,4.0,-999,-99.99,,,-99.99,,2013-02-17 05:12:00,
2013-02-16 22:22:00,41.0,-99.9,-100.00,NNE,28,1.0,3.0,-999,-99.99,,,-99.99,,2013-02-17 05:22:00,
2013-02-16 22:33:00,41.0,-99.9,-100.00,NNE,28,1.0,3.0,-999,-99.99,,,-99.99,,2013-02-17 05:33:00,
2013-02-16 22:52:00,40.0,-99.9,-100.00,NE,44,0.0,5.0,-999,-99.99,,,-99.99,,2013-02-17 05:52:00,
2013-02-16 23:02:00,40.0,-99.9,-100.00,NE,44,0.0,5.0,-999,-99.99,,,-99.99,,2013-02-17 06:02:00,
2013-02-16 23:52:00,39.0,-99.9,-100.00,East,89,4.0,5.0,-999,-99.99,,,-99.99,,2013-02-17 06:52:00,